sensor_id;sensor_type;location;lat;lon;timestamp;P1;durP1;ratioP1;P2;durP2;ratioP2
81195;SDS011;70671;43.888;-79.394;2023-07-20T00:01:50;4.65;;;2.15;;
81195;SDS011;70671;43.888;-79.394;2023-07-20T00:04:16;6.78;;;2.80;;
81195;SDS011;70671;43.888;-79.394;2023-07-20T00:06:42;8.63;;;2.78;;
81195;SDS011;70671;43.888;-79.394;2023-07-20T00:09:08;8.10;;;2.60;;
81195;SDS011;70671;43.888;-79.394;2023-07-20T00:11:37;6.20;;;2.58;;
81195;SDS011;70671;43.888;-79.394;2023-07-20T00:14:06;6.30;;;2.70;;
81195;SDS011;70671;43.888;-79.394;2023-07-20T00:16:33;8.40;;;2.80;;
81195;SDS011;70671;43.888;-79.394;2023-07-20T00:18:59;8.55;;;3.17;;
81195;SDS011;70671;43.888;-79.394;2023-07-20T00:21:25;8.90;;;2.60;;
81195;SDS011;70671;43.888;-79.394;2023-07-20T00:23:51;6.65;;;2.38;;
81195;SDS011;70671;43.888;-79.394;2023-07-20T00:26:23;7.72;;;2.80;;
81195;SDS011;70671;43.888;-79.394;2023-07-20T00:28:56;8.43;;;3.38;;
81195;SDS011;70671;43.888;-79.394;2023-07-20T00:31:22;7.70;;;2.50;;
81195;SDS011;70671;43.888;-79.394;2023-07-20T00:33:47;7.97;;;2.97;;
81195;SDS011;70671;43.888;-79.394;2023-07-20T00:36:14;7.75;;;2.78;;
81195;SDS011;70671;43.888;-79.394;2023-07-20T00:38:40;7.85;;;3.13;;
81195;SDS011;70671;43.888;-79.394;2023-07-20T00:41:06;7.50;;;2.50;;
81195;SDS011;70671;43.888;-79.394;2023-07-20T00:43:32;8.93;;;2.45;;
81195;SDS011;70671;43.888;-79.394;2023-07-20T00:45:58;6.53;;;2.65;;
81195;SDS011;70671;43.888;-79.394;2023-07-20T00:48:24;7.28;;;2.67;;
81195;SDS011;70671;43.888;-79.394;2023-07-20T00:50:51;7.20;;;2.55;;
81195;SDS011;70671;43.888;-79.394;2023-07-20T00:53:17;6.32;;;2.72;;
81195;SDS011;70671;43.888;-79.394;2023-07-20T00:55:43;7.43;;;3.08;;
81195;SDS011;70671;43.888;-79.394;2023-07-20T00:58:09;7.45;;;3.25;;
81195;SDS011;70671;43.888;-79.394;2023-07-20T01:00:36;9.45;;;3.35;;
81195;SDS011;70671;43.888;-79.394;2023-07-20T01:03:02;7.40;;;2.90;;
81195;SDS011;70671;43.888;-79.394;2023-07-20T01:08:28;7.45;;;2.72;;
81195;SDS011;70671;43.888;-79.394;2023-07-20T01:11:16;8.93;;;3.63;;
81195;SDS011;70671;43.888;-79.394;2023-07-20T01:13:53;7.82;;;2.60;;
81195;SDS011;70671;43.888;-79.394;2023-07-20T01:16:20;10.77;;;3.08;;
81195;SDS011;70671;43.888;-79.394;2023-07-20T01:18:46;8.68;;;2.80;;
81195;SDS011;70671;43.888;-79.394;2023-07-20T01:21:18;9.85;;;3.42;;
81195;SDS011;70671;43.888;-79.394;2023-07-20T01:27:08;7.40;;;2.80;;
81195;SDS011;70671;43.888;-79.394;2023-07-20T01:32:26;7.28;;;2.83;;
81195;SDS011;70671;43.888;-79.394;2023-07-20T01:34:54;9.15;;;2.80;;
81195;SDS011;70671;43.888;-79.394;2023-07-20T01:37:23;7.80;;;2.90;;
81195;SDS011;70671;43.888;-79.394;2023-07-20T01:39:53;9.55;;;3.13;;
81195;SDS011;70671;43.888;-79.394;2023-07-20T01:42:21;8.95;;;2.75;;
81195;SDS011;70671;43.888;-79.394;2023-07-20T01:44:50;8.13;;;3.10;;
81195;SDS011;70671;43.888;-79.394;2023-07-20T01:47:17;8.70;;;2.63;;
81195;SDS011;70671;43.888;-79.394;2023-07-20T01:49:43;6.93;;;2.60;;
81195;SDS011;70671;43.888;-79.394;2023-07-20T01:52:09;9.07;;;3.47;;
81195;SDS011;70671;43.888;-79.394;2023-07-20T01:54:36;7.68;;;3.05;;
81195;SDS011;70671;43.888;-79.394;2023-07-20T01:57:02;7.68;;;2.97;;
81195;SDS011;70671;43.888;-79.394;2023-07-20T01:59:29;8.48;;;2.83;;
81195;SDS011;70671;43.888;-79.394;2023-07-20T02:01:55;6.40;;;2.50;;
81195;SDS011;70671;43.888;-79.394;2023-07-20T02:04:21;7.95;;;2.33;;
81195;SDS011;70671;43.888;-79.394;2023-07-20T02:06:47;8.68;;;2.72;;
81195;SDS011;70671;43.888;-79.394;2023-07-20T02:09:13;7.40;;;2.58;;
81195;SDS011;70671;43.888;-79.394;2023-07-20T02:11:39;7.65;;;2.83;;
81195;SDS011;70671;43.888;-79.394;2023-07-20T02:14:05;7.97;;;3.00;;
81195;SDS011;70671;43.888;-79.394;2023-07-20T02:16:31;9.80;;;2.70;;
81195;SDS011;70671;43.888;-79.394;2023-07-20T02:18:57;7.57;;;2.80;;
81195;SDS011;70671;43.888;-79.394;2023-07-20T02:21:23;7.10;;;2.50;;
81195;SDS011;70671;43.888;-79.394;2023-07-20T02:23:49;7.90;;;3.08;;
81195;SDS011;70671;43.888;-79.394;2023-07-20T02:26:15;8.95;;;3.35;;
81195;SDS011;70671;43.888;-79.394;2023-07-20T02:28:41;8.43;;;3.15;;
81195;SDS011;70671;43.888;-79.394;2023-07-20T02:31:07;6.90;;;3.03;;
81195;SDS011;70671;43.888;-79.394;2023-07-20T02:33:33;7.60;;;3.13;;
81195;SDS011;70671;43.888;-79.394;2023-07-20T02:35:59;8.27;;;2.85;;
81195;SDS011;70671;43.888;-79.394;2023-07-20T02:38:25;8.88;;;4.03;;
81195;SDS011;70671;43.888;-79.394;2023-07-20T02:40:51;9.13;;;3.35;;
81195;SDS011;70671;43.888;-79.394;2023-07-20T02:43:17;7.47;;;2.65;;
81195;SDS011;70671;43.888;-79.394;2023-07-20T02:45:43;8.50;;;2.85;;
81195;SDS011;70671;43.888;-79.394;2023-07-20T02:48:09;9.55;;;3.15;;
81195;SDS011;70671;43.888;-79.394;2023-07-20T02:50:35;7.80;;;2.97;;
81195;SDS011;70671;43.888;-79.394;2023-07-20T02:53:01;8.32;;;2.63;;
81195;SDS011;70671;43.888;-79.394;2023-07-20T02:55:28;7.40;;;3.10;;
81195;SDS011;70671;43.888;-79.394;2023-07-20T02:57:54;7.75;;;3.03;;
81195;SDS011;70671;43.888;-79.394;2023-07-20T03:00:20;8.48;;;2.92;;
81195;SDS011;70671;43.888;-79.394;2023-07-20T03:02:48;8.50;;;2.88;;
81195;SDS011;70671;43.888;-79.394;2023-07-20T03:05:26;7.93;;;3.03;;
81195;SDS011;70671;43.888;-79.394;2023-07-20T03:07:59;6.35;;;2.53;;
81195;SDS011;70671;43.888;-79.394;2023-07-20T03:10:32;7.47;;;2.90;;
81195;SDS011;70671;43.888;-79.394;2023-07-20T03:12:58;8.02;;;2.88;;
81195;SDS011;70671;43.888;-79.394;2023-07-20T03:15:24;7.53;;;2.50;;
81195;SDS011;70671;43.888;-79.394;2023-07-20T03:17:50;9.73;;;3.00;;
81195;SDS011;70671;43.888;-79.394;2023-07-20T03:20:16;12.57;;;2.90;;
81195;SDS011;70671;43.888;-79.394;2023-07-20T03:22:42;8.25;;;3.17;;
81195;SDS011;70671;43.888;-79.394;2023-07-20T03:25:08;8.30;;;3.42;;
81195;SDS011;70671;43.888;-79.394;2023-07-20T03:27:34;7.28;;;3.00;;
81195;SDS011;70671;43.888;-79.394;2023-07-20T03:30:01;7.47;;;2.63;;
81195;SDS011;70671;43.888;-79.394;2023-07-20T03:32:27;7.57;;;2.70;;
81195;SDS011;70671;43.888;-79.394;2023-07-20T03:34:53;8.27;;;2.92;;
81195;SDS011;70671;43.888;-79.394;2023-07-20T03:37:19;7.45;;;2.63;;
81195;SDS011;70671;43.888;-79.394;2023-07-20T03:39:45;6.90;;;2.72;;
81195;SDS011;70671;43.888;-79.394;2023-07-20T03:42:11;7.95;;;2.65;;
81195;SDS011;70671;43.888;-79.394;2023-07-20T03:44:37;7.53;;;2.60;;
81195;SDS011;70671;43.888;-79.394;2023-07-20T03:47:03;7.60;;;2.58;;
81195;SDS011;70671;43.888;-79.394;2023-07-20T03:49:29;7.43;;;3.28;;
81195;SDS011;70671;43.888;-79.394;2023-07-20T03:51:55;7.88;;;3.33;;
81195;SDS011;70671;43.888;-79.394;2023-07-20T03:54:21;10.38;;;3.03;;
81195;SDS011;70671;43.888;-79.394;2023-07-20T03:56:47;8.80;;;3.03;;
81195;SDS011;70671;43.888;-79.394;2023-07-20T03:59:14;9.45;;;3.15;;
81195;SDS011;70671;43.888;-79.394;2023-07-20T04:01:40;8.15;;;3.30;;
81195;SDS011;70671;43.888;-79.394;2023-07-20T04:04:06;9.40;;;3.10;;
81195;SDS011;70671;43.888;-79.394;2023-07-20T04:06:33;7.18;;;2.50;;
81195;SDS011;70671;43.888;-79.394;2023-07-20T04:08:59;10.40;;;2.92;;
81195;SDS011;70671;43.888;-79.394;2023-07-20T04:11:25;8.05;;;3.20;;
81195;SDS011;70671;43.888;-79.394;2023-07-20T04:13:51;8.50;;;3.15;;
81195;SDS011;70671;43.888;-79.394;2023-07-20T04:16:17;8.43;;;2.78;;
81195;SDS011;70671;43.888;-79.394;2023-07-20T04:18:45;13.93;;;3.47;;
81195;SDS011;70671;43.888;-79.394;2023-07-20T04:21:11;11.13;;;3.10;;
81195;SDS011;70671;43.888;-79.394;2023-07-20T04:23:37;10.13;;;2.90;;
81195;SDS011;70671;43.888;-79.394;2023-07-20T04:26:03;7.40;;;2.90;;
81195;SDS011;70671;43.888;-79.394;2023-07-20T04:28:29;12.82;;;3.95;;
81195;SDS011;70671;43.888;-79.394;2023-07-20T04:31:08;7.70;;;2.72;;
81195;SDS011;70671;43.888;-79.394;2023-07-20T04:33:38;8.25;;;2.95;;
81195;SDS011;70671;43.888;-79.394;2023-07-20T04:36:04;10.45;;;3.70;;
81195;SDS011;70671;43.888;-79.394;2023-07-20T04:38:31;7.75;;;2.50;;
81195;SDS011;70671;43.888;-79.394;2023-07-20T04:40:57;9.55;;;2.97;;
81195;SDS011;70671;43.888;-79.394;2023-07-20T04:43:23;8.82;;;3.20;;
81195;SDS011;70671;43.888;-79.394;2023-07-20T04:45:49;7.63;;;2.80;;
81195;SDS011;70671;43.888;-79.394;2023-07-20T04:48:16;9.80;;;2.80;;
81195;SDS011;70671;43.888;-79.394;2023-07-20T04:50:43;8.32;;;3.10;;
81195;SDS011;70671;43.888;-79.394;2023-07-20T04:53:10;6.32;;;2.80;;
81195;SDS011;70671;43.888;-79.394;2023-07-20T04:55:37;6.40;;;2.35;;
81195;SDS011;70671;43.888;-79.394;2023-07-20T04:58:04;6.63;;;2.80;;
81195;SDS011;70671;43.888;-79.394;2023-07-20T05:00:32;11.43;;;3.22;;
81195;SDS011;70671;43.888;-79.394;2023-07-20T05:02:59;7.25;;;2.63;;
81195;SDS011;70671;43.888;-79.394;2023-07-20T05:05:25;7.85;;;2.67;;
81195;SDS011;70671;43.888;-79.394;2023-07-20T05:07:51;8.98;;;2.70;;
81195;SDS011;70671;43.888;-79.394;2023-07-20T05:10:17;8.07;;;3.13;;
81195;SDS011;70671;43.888;-79.394;2023-07-20T05:12:43;7.95;;;3.00;;
81195;SDS011;70671;43.888;-79.394;2023-07-20T05:15:10;7.93;;;2.97;;
81195;SDS011;70671;43.888;-79.394;2023-07-20T05:17:36;8.63;;;2.95;;
81195;SDS011;70671;43.888;-79.394;2023-07-20T05:20:02;9.60;;;3.55;;
81195;SDS011;70671;43.888;-79.394;2023-07-20T05:22:29;9.25;;;2.63;;
81195;SDS011;70671;43.888;-79.394;2023-07-20T05:24:55;8.90;;;3.42;;
81195;SDS011;70671;43.888;-79.394;2023-07-20T05:27:21;9.27;;;3.00;;
81195;SDS011;70671;43.888;-79.394;2023-07-20T05:29:47;7.70;;;3.15;;
81195;SDS011;70671;43.888;-79.394;2023-07-20T05:32:13;6.78;;;2.63;;
81195;SDS011;70671;43.888;-79.394;2023-07-20T05:34:39;6.50;;;2.78;;
81195;SDS011;70671;43.888;-79.394;2023-07-20T05:37:05;8.85;;;2.70;;
81195;SDS011;70671;43.888;-79.394;2023-07-20T05:39:32;7.35;;;2.85;;
81195;SDS011;70671;43.888;-79.394;2023-07-20T05:41:58;10.90;;;3.60;;
81195;SDS011;70671;43.888;-79.394;2023-07-20T05:44:24;11.38;;;3.88;;
81195;SDS011;70671;43.888;-79.394;2023-07-20T05:46:50;12.40;;;3.42;;
81195;SDS011;70671;43.888;-79.394;2023-07-20T05:49:16;11.50;;;3.50;;
81195;SDS011;70671;43.888;-79.394;2023-07-20T05:51:42;8.65;;;3.50;;
81195;SDS011;70671;43.888;-79.394;2023-07-20T05:54:08;8.05;;;3.08;;
81195;SDS011;70671;43.888;-79.394;2023-07-20T05:56:34;10.02;;;4.07;;
81195;SDS011;70671;43.888;-79.394;2023-07-20T05:59:00;10.18;;;3.08;;
81195;SDS011;70671;43.888;-79.394;2023-07-20T06:01:26;10.23;;;3.25;;
81195;SDS011;70671;43.888;-79.394;2023-07-20T06:03:53;10.73;;;3.55;;
81195;SDS011;70671;43.888;-79.394;2023-07-20T06:06:19;9.88;;;3.28;;
81195;SDS011;70671;43.888;-79.394;2023-07-20T06:08:45;6.88;;;2.65;;
81195;SDS011;70671;43.888;-79.394;2023-07-20T06:11:11;9.35;;;3.38;;
81195;SDS011;70671;43.888;-79.394;2023-07-20T06:13:37;10.13;;;3.70;;
81195;SDS011;70671;43.888;-79.394;2023-07-20T06:16:03;9.13;;;2.78;;
81195;SDS011;70671;43.888;-79.394;2023-07-20T06:18:29;8.43;;;3.28;;
81195;SDS011;70671;43.888;-79.394;2023-07-20T06:20:56;10.35;;;3.53;;
81195;SDS011;70671;43.888;-79.394;2023-07-20T06:23:22;10.40;;;3.47;;
81195;SDS011;70671;43.888;-79.394;2023-07-20T06:25:48;9.90;;;3.38;;
81195;SDS011;70671;43.888;-79.394;2023-07-20T06:28:14;10.88;;;3.05;;
81195;SDS011;70671;43.888;-79.394;2023-07-20T06:30:40;9.15;;;3.53;;
81195;SDS011;70671;43.888;-79.394;2023-07-20T06:33:06;9.15;;;3.70;;
81195;SDS011;70671;43.888;-79.394;2023-07-20T06:35:33;9.27;;;3.15;;
81195;SDS011;70671;43.888;-79.394;2023-07-20T06:38:00;6.65;;;3.30;;
81195;SDS011;70671;43.888;-79.394;2023-07-20T06:40:32;8.43;;;3.40;;
81195;SDS011;70671;43.888;-79.394;2023-07-20T06:42:57;9.85;;;2.67;;
81195;SDS011;70671;43.888;-79.394;2023-07-20T06:45:23;10.85;;;3.58;;
81195;SDS011;70671;43.888;-79.394;2023-07-20T06:47:49;10.25;;;3.28;;
81195;SDS011;70671;43.888;-79.394;2023-07-20T06:50:15;7.57;;;3.05;;
81195;SDS011;70671;43.888;-79.394;2023-07-20T06:52:41;10.63;;;3.90;;
81195;SDS011;70671;43.888;-79.394;2023-07-20T06:55:07;10.43;;;3.45;;
81195;SDS011;70671;43.888;-79.394;2023-07-20T06:57:34;9.85;;;3.13;;
81195;SDS011;70671;43.888;-79.394;2023-07-20T07:00:00;11.55;;;3.35;;
81195;SDS011;70671;43.888;-79.394;2023-07-20T07:02:26;10.90;;;3.10;;
81195;SDS011;70671;43.888;-79.394;2023-07-20T07:04:52;10.07;;;3.55;;
81195;SDS011;70671;43.888;-79.394;2023-07-20T07:07:18;10.50;;;3.15;;
81195;SDS011;70671;43.888;-79.394;2023-07-20T07:09:44;10.25;;;3.35;;
81195;SDS011;70671;43.888;-79.394;2023-07-20T07:12:10;8.20;;;3.40;;
81195;SDS011;70671;43.888;-79.394;2023-07-20T07:14:36;8.73;;;3.75;;
81195;SDS011;70671;43.888;-79.394;2023-07-20T07:17:02;6.55;;;2.78;;
81195;SDS011;70671;43.888;-79.394;2023-07-20T07:19:28;6.65;;;2.80;;
81195;SDS011;70671;43.888;-79.394;2023-07-20T07:21:54;9.40;;;3.33;;
81195;SDS011;70671;43.888;-79.394;2023-07-20T07:24:20;9.88;;;3.58;;
81195;SDS011;70671;43.888;-79.394;2023-07-20T07:26:46;9.13;;;3.30;;
81195;SDS011;70671;43.888;-79.394;2023-07-20T07:29:12;9.93;;;2.95;;
81195;SDS011;70671;43.888;-79.394;2023-07-20T07:31:38;8.80;;;3.10;;
81195;SDS011;70671;43.888;-79.394;2023-07-20T07:34:04;7.88;;;3.13;;
81195;SDS011;70671;43.888;-79.394;2023-07-20T07:36:31;7.43;;;3.53;;
81195;SDS011;70671;43.888;-79.394;2023-07-20T07:38:57;7.80;;;3.47;;
81195;SDS011;70671;43.888;-79.394;2023-07-20T07:41:23;8.43;;;3.20;;
81195;SDS011;70671;43.888;-79.394;2023-07-20T07:43:49;8.25;;;2.88;;
81195;SDS011;70671;43.888;-79.394;2023-07-20T07:46:15;8.60;;;3.13;;
81195;SDS011;70671;43.888;-79.394;2023-07-20T07:48:41;7.20;;;3.30;;
81195;SDS011;70671;43.888;-79.394;2023-07-20T07:51:08;9.48;;;2.92;;
81195;SDS011;70671;43.888;-79.394;2023-07-20T07:53:34;8.30;;;3.15;;
81195;SDS011;70671;43.888;-79.394;2023-07-20T07:56:02;9.27;;;3.45;;
81195;SDS011;70671;43.888;-79.394;2023-07-20T07:58:28;9.65;;;3.40;;
81195;SDS011;70671;43.888;-79.394;2023-07-20T08:00:55;8.93;;;3.03;;
81195;SDS011;70671;43.888;-79.394;2023-07-20T08:03:21;7.97;;;2.95;;
81195;SDS011;70671;43.888;-79.394;2023-07-20T08:05:49;7.57;;;3.13;;
81195;SDS011;70671;43.888;-79.394;2023-07-20T08:08:15;7.80;;;2.90;;
81195;SDS011;70671;43.888;-79.394;2023-07-20T08:10:42;9.30;;;3.15;;
81195;SDS011;70671;43.888;-79.394;2023-07-20T08:13:08;10.90;;;3.00;;
81195;SDS011;70671;43.888;-79.394;2023-07-20T08:15:34;8.70;;;3.33;;
81195;SDS011;70671;43.888;-79.394;2023-07-20T08:18:00;7.65;;;2.70;;
81195;SDS011;70671;43.888;-79.394;2023-07-20T08:20:26;9.02;;;2.97;;
81195;SDS011;70671;43.888;-79.394;2023-07-20T08:22:55;7.25;;;3.00;;
81195;SDS011;70671;43.888;-79.394;2023-07-20T08:25:23;8.50;;;3.53;;
81195;SDS011;70671;43.888;-79.394;2023-07-20T08:27:49;7.95;;;3.58;;
81195;SDS011;70671;43.888;-79.394;2023-07-20T08:30:15;7.50;;;3.22;;
81195;SDS011;70671;43.888;-79.394;2023-07-20T08:32:41;11.23;;;3.17;;
81195;SDS011;70671;43.888;-79.394;2023-07-20T08:35:07;11.63;;;3.92;;
81195;SDS011;70671;43.888;-79.394;2023-07-20T08:37:33;9.15;;;3.58;;
81195;SDS011;70671;43.888;-79.394;2023-07-20T08:39:59;12.68;;;3.13;;
81195;SDS011;70671;43.888;-79.394;2023-07-20T08:42:26;9.38;;;3.40;;
81195;SDS011;70671;43.888;-79.394;2023-07-20T08:44:53;6.95;;;2.85;;
81195;SDS011;70671;43.888;-79.394;2023-07-20T08:47:20;6.50;;;2.80;;
81195;SDS011;70671;43.888;-79.394;2023-07-20T08:49:50;8.93;;;3.00;;
81195;SDS011;70671;43.888;-79.394;2023-07-20T08:52:16;8.98;;;3.42;;
81195;SDS011;70671;43.888;-79.394;2023-07-20T08:54:42;8.95;;;3.25;;
81195;SDS011;70671;43.888;-79.394;2023-07-20T08:57:08;9.20;;;3.63;;
81195;SDS011;70671;43.888;-79.394;2023-07-20T08:59:39;7.63;;;2.78;;
81195;SDS011;70671;43.888;-79.394;2023-07-20T09:02:06;8.38;;;3.22;;
81195;SDS011;70671;43.888;-79.394;2023-07-20T09:04:34;9.50;;;2.95;;
81195;SDS011;70671;43.888;-79.394;2023-07-20T09:07:00;8.30;;;2.67;;
81195;SDS011;70671;43.888;-79.394;2023-07-20T09:09:27;7.97;;;2.78;;
81195;SDS011;70671;43.888;-79.394;2023-07-20T09:11:53;9.10;;;3.60;;
81195;SDS011;70671;43.888;-79.394;2023-07-20T09:14:19;7.93;;;2.63;;
81195;SDS011;70671;43.888;-79.394;2023-07-20T09:16:54;9.15;;;3.22;;
81195;SDS011;70671;43.888;-79.394;2023-07-20T09:19:21;9.00;;;3.20;;
81195;SDS011;70671;43.888;-79.394;2023-07-20T09:21:48;8.48;;;3.08;;
81195;SDS011;70671;43.888;-79.394;2023-07-20T09:24:16;6.40;;;2.90;;
81195;SDS011;70671;43.888;-79.394;2023-07-20T09:26:44;9.15;;;3.25;;
81195;SDS011;70671;43.888;-79.394;2023-07-20T09:29:13;7.95;;;3.47;;
81195;SDS011;70671;43.888;-79.394;2023-07-20T09:31:39;8.73;;;3.90;;
81195;SDS011;70671;43.888;-79.394;2023-07-20T09:34:06;8.25;;;3.20;;
81195;SDS011;70671;43.888;-79.394;2023-07-20T09:36:35;9.23;;;3.53;;
81195;SDS011;70671;43.888;-79.394;2023-07-20T09:39:02;13.48;;;3.30;;
81195;SDS011;70671;43.888;-79.394;2023-07-20T09:41:29;10.18;;;3.40;;
81195;SDS011;70671;43.888;-79.394;2023-07-20T09:43:55;7.97;;;2.65;;
81195;SDS011;70671;43.888;-79.394;2023-07-20T09:46:22;7.72;;;2.92;;
81195;SDS011;70671;43.888;-79.394;2023-07-20T09:48:51;11.57;;;2.72;;
81195;SDS011;70671;43.888;-79.394;2023-07-20T09:51:23;8.13;;;2.90;;
81195;SDS011;70671;43.888;-79.394;2023-07-20T09:53:51;10.52;;;3.30;;
81195;SDS011;70671;43.888;-79.394;2023-07-20T09:56:21;8.15;;;3.53;;
81195;SDS011;70671;43.888;-79.394;2023-07-20T09:58:48;8.68;;;3.40;;
81195;SDS011;70671;43.888;-79.394;2023-07-20T10:01:16;13.10;;;3.53;;
81195;SDS011;70671;43.888;-79.394;2023-07-20T10:03:47;8.30;;;2.95;;
81195;SDS011;70671;43.888;-79.394;2023-07-20T10:06:17;8.63;;;2.72;;
81195;SDS011;70671;43.888;-79.394;2023-07-20T10:08:49;7.55;;;2.90;;
81195;SDS011;70671;43.888;-79.394;2023-07-20T10:11:19;7.43;;;2.92;;
81195;SDS011;70671;43.888;-79.394;2023-07-20T10:13:53;7.90;;;2.85;;
81195;SDS011;70671;43.888;-79.394;2023-07-20T10:16:31;8.73;;;2.78;;
81195;SDS011;70671;43.888;-79.394;2023-07-20T10:19:10;9.07;;;3.30;;
81195;SDS011;70671;43.888;-79.394;2023-07-20T10:21:48;8.70;;;3.65;;
81195;SDS011;70671;43.888;-79.394;2023-07-20T10:24:22;6.45;;;2.50;;
81195;SDS011;70671;43.888;-79.394;2023-07-20T10:26:49;7.78;;;2.85;;
81195;SDS011;70671;43.888;-79.394;2023-07-20T10:29:16;8.85;;;3.22;;
81195;SDS011;70671;43.888;-79.394;2023-07-20T10:31:42;8.00;;;2.78;;
81195;SDS011;70671;43.888;-79.394;2023-07-20T10:34:09;9.95;;;3.38;;
81195;SDS011;70671;43.888;-79.394;2023-07-20T10:36:35;8.88;;;3.05;;
81195;SDS011;70671;43.888;-79.394;2023-07-20T10:39:27;6.22;;;2.97;;
81195;SDS011;70671;43.888;-79.394;2023-07-20T10:42:08;7.57;;;2.92;;
81195;SDS011;70671;43.888;-79.394;2023-07-20T10:44:38;10.07;;;3.28;;
81195;SDS011;70671;43.888;-79.394;2023-07-20T10:47:09;7.68;;;3.17;;
81195;SDS011;70671;43.888;-79.394;2023-07-20T10:49:57;8.68;;;3.15;;
81195;SDS011;70671;43.888;-79.394;2023-07-20T10:52:24;9.77;;;3.47;;
81195;SDS011;70671;43.888;-79.394;2023-07-20T10:54:50;7.50;;;2.78;;
81195;SDS011;70671;43.888;-79.394;2023-07-20T10:57:23;8.90;;;3.03;;
81195;SDS011;70671;43.888;-79.394;2023-07-20T10:59:53;7.70;;;2.85;;
81195;SDS011;70671;43.888;-79.394;2023-07-20T11:02:45;8.35;;;2.88;;
81195;SDS011;70671;43.888;-79.394;2023-07-20T11:08:00;4.93;;;2.15;;
81195;SDS011;70671;43.888;-79.394;2023-07-20T11:10:29;7.55;;;2.70;;
81195;SDS011;70671;43.888;-79.394;2023-07-20T11:18:26;8.23;;;2.90;;
81195;SDS011;70671;43.888;-79.394;2023-07-20T11:20:52;10.32;;;3.70;;
81195;SDS011;70671;43.888;-79.394;2023-07-20T11:23:19;14.60;;;4.57;;
81195;SDS011;70671;43.888;-79.394;2023-07-20T11:25:46;13.60;;;4.00;;
81195;SDS011;70671;43.888;-79.394;2023-07-20T11:28:12;12.32;;;4.05;;
81195;SDS011;70671;43.888;-79.394;2023-07-20T11:30:38;13.20;;;3.38;;
81195;SDS011;70671;43.888;-79.394;2023-07-20T11:33:05;11.45;;;3.22;;
81195;SDS011;70671;43.888;-79.394;2023-07-20T11:35:51;12.15;;;2.50;;
81195;SDS011;70671;43.888;-79.394;2023-07-20T11:38:18;9.07;;;2.90;;
81195;SDS011;70671;43.888;-79.394;2023-07-20T11:40:44;11.55;;;3.45;;
81195;SDS011;70671;43.888;-79.394;2023-07-20T11:43:12;16.58;;;3.83;;
81195;SDS011;70671;43.888;-79.394;2023-07-20T11:45:39;10.52;;;3.63;;
81195;SDS011;70671;43.888;-79.394;2023-07-20T11:48:05;10.48;;;3.63;;
81195;SDS011;70671;43.888;-79.394;2023-07-20T11:50:31;12.07;;;4.40;;
81195;SDS011;70671;43.888;-79.394;2023-07-20T11:52:57;10.15;;;4.18;;
81195;SDS011;70671;43.888;-79.394;2023-07-20T11:55:23;11.85;;;4.45;;
81195;SDS011;70671;43.888;-79.394;2023-07-20T11:58:05;8.65;;;3.97;;
81195;SDS011;70671;43.888;-79.394;2023-07-20T12:00:33;8.68;;;3.38;;
81195;SDS011;70671;43.888;-79.394;2023-07-20T12:02:59;9.38;;;4.80;;
81195;SDS011;70671;43.888;-79.394;2023-07-20T12:05:26;11.55;;;4.53;;
81195;SDS011;70671;43.888;-79.394;2023-07-20T12:07:52;12.02;;;4.57;;
81195;SDS011;70671;43.888;-79.394;2023-07-20T12:10:26;11.65;;;4.85;;
81195;SDS011;70671;43.888;-79.394;2023-07-20T12:13:05;11.82;;;4.80;;
81195;SDS011;70671;43.888;-79.394;2023-07-20T12:15:32;10.15;;;4.75;;
81195;SDS011;70671;43.888;-79.394;2023-07-20T12:17:59;13.13;;;4.57;;
81195;SDS011;70671;43.888;-79.394;2023-07-20T12:23:04;10.07;;;4.68;;
81195;SDS011;70671;43.888;-79.394;2023-07-20T12:28:10;11.30;;;4.93;;
81195;SDS011;70671;43.888;-79.394;2023-07-20T12:30:44;10.15;;;4.57;;
81195;SDS011;70671;43.888;-79.394;2023-07-20T12:33:11;11.60;;;4.72;;
81195;SDS011;70671;43.888;-79.394;2023-07-20T12:35:40;13.88;;;6.03;;
81195;SDS011;70671;43.888;-79.394;2023-07-20T12:38:08;16.05;;;4.93;;
81195;SDS011;70671;43.888;-79.394;2023-07-20T12:40:34;11.50;;;4.82;;
81195;SDS011;70671;43.888;-79.394;2023-07-20T12:43:01;11.30;;;4.25;;
81195;SDS011;70671;43.888;-79.394;2023-07-20T12:45:27;14.80;;;4.35;;
81195;SDS011;70671;43.888;-79.394;2023-07-20T12:47:53;13.05;;;4.63;;
81195;SDS011;70671;43.888;-79.394;2023-07-20T12:50:19;10.48;;;3.90;;
81195;SDS011;70671;43.888;-79.394;2023-07-20T12:52:45;10.90;;;5.05;;
81195;SDS011;70671;43.888;-79.394;2023-07-20T12:55:11;11.02;;;5.18;;
81195;SDS011;70671;43.888;-79.394;2023-07-20T12:57:37;9.70;;;3.63;;
81195;SDS011;70671;43.888;-79.394;2023-07-20T13:00:05;11.23;;;3.60;;
81195;SDS011;70671;43.888;-79.394;2023-07-20T13:02:35;8.15;;;3.58;;
81195;SDS011;70671;43.888;-79.394;2023-07-20T13:05:02;9.13;;;3.95;;
81195;SDS011;70671;43.888;-79.394;2023-07-20T13:07:35;11.38;;;4.03;;
81195;SDS011;70671;43.888;-79.394;2023-07-20T13:10:03;7.95;;;3.65;;
81195;SDS011;70671;43.888;-79.394;2023-07-20T13:12:30;7.65;;;3.13;;
81195;SDS011;70671;43.888;-79.394;2023-07-20T13:14:58;8.73;;;3.42;;
81195;SDS011;70671;43.888;-79.394;2023-07-20T13:17:28;9.43;;;4.18;;
81195;SDS011;70671;43.888;-79.394;2023-07-20T13:19:54;8.35;;;3.40;;
81195;SDS011;70671;43.888;-79.394;2023-07-20T13:22:20;9.35;;;3.53;;
81195;SDS011;70671;43.888;-79.394;2023-07-20T13:24:46;9.48;;;3.60;;
81195;SDS011;70671;43.888;-79.394;2023-07-20T13:27:15;8.40;;;3.22;;
81195;SDS011;70671;43.888;-79.394;2023-07-20T13:29:42;10.20;;;3.50;;
81195;SDS011;70671;43.888;-79.394;2023-07-20T13:32:08;8.40;;;3.40;;
81195;SDS011;70671;43.888;-79.394;2023-07-20T13:34:34;10.02;;;3.42;;
81195;SDS011;70671;43.888;-79.394;2023-07-20T13:37:01;16.58;;;4.05;;
81195;SDS011;70671;43.888;-79.394;2023-07-20T13:39:27;8.27;;;3.05;;
81195;SDS011;70671;43.888;-79.394;2023-07-20T13:41:54;8.05;;;3.15;;
81195;SDS011;70671;43.888;-79.394;2023-07-20T13:44:20;8.65;;;3.28;;
81195;SDS011;70671;43.888;-79.394;2023-07-20T13:46:47;8.38;;;4.03;;
81195;SDS011;70671;43.888;-79.394;2023-07-20T13:49:20;9.48;;;3.60;;
81195;SDS011;70671;43.888;-79.394;2023-07-20T13:51:52;8.93;;;3.55;;
81195;SDS011;70671;43.888;-79.394;2023-07-20T13:54:18;9.05;;;3.47;;
81195;SDS011;70671;43.888;-79.394;2023-07-20T13:56:44;6.93;;;2.72;;
81195;SDS011;70671;43.888;-79.394;2023-07-20T13:59:10;7.82;;;3.25;;
81195;SDS011;70671;43.888;-79.394;2023-07-20T14:01:36;7.20;;;3.17;;
81195;SDS011;70671;43.888;-79.394;2023-07-20T14:04:02;10.38;;;4.00;;
81195;SDS011;70671;43.888;-79.394;2023-07-20T14:06:31;7.85;;;3.55;;
81195;SDS011;70671;43.888;-79.394;2023-07-20T14:08:58;7.18;;;2.75;;
81195;SDS011;70671;43.888;-79.394;2023-07-20T14:11:25;6.90;;;2.80;;
81195;SDS011;70671;43.888;-79.394;2023-07-20T14:13:51;7.80;;;2.85;;
81195;SDS011;70671;43.888;-79.394;2023-07-20T14:16:19;6.40;;;2.42;;
81195;SDS011;70671;43.888;-79.394;2023-07-20T14:18:45;8.45;;;2.95;;
81195;SDS011;70671;43.888;-79.394;2023-07-20T14:21:18;7.05;;;2.60;;
81195;SDS011;70671;43.888;-79.394;2023-07-20T14:23:46;6.00;;;2.75;;
81195;SDS011;70671;43.888;-79.394;2023-07-20T14:26:13;6.13;;;2.55;;
81195;SDS011;70671;43.888;-79.394;2023-07-20T14:28:42;6.82;;;2.63;;
81195;SDS011;70671;43.888;-79.394;2023-07-20T14:31:08;5.80;;;2.30;;
81195;SDS011;70671;43.888;-79.394;2023-07-20T14:33:34;10.35;;;2.95;;
81195;SDS011;70671;43.888;-79.394;2023-07-20T14:36:00;9.20;;;3.00;;
81195;SDS011;70671;43.888;-79.394;2023-07-20T14:38:27;7.82;;;3.47;;
81195;SDS011;70671;43.888;-79.394;2023-07-20T14:40:54;9.23;;;2.65;;
81195;SDS011;70671;43.888;-79.394;2023-07-20T14:43:20;8.07;;;2.88;;